Time;durP1;ratioP1;P1;durP2;ratioP2;P2;SDS_P1;SDS_P2;PMS_P1;PMS_P2;Temp;Humidity;BMP_temperature;BMP_pressure;BME280_temperature;BME280_humidity;BME280_pressure;Samples;Min_cycle;Max_cycle;Signal;HPM_P1;HPM_P2
2022/10/24 00:01:49;;;;;;;;;;;13.20;99.90;;;;;;5015037;28;19913;-87
2022/10/24 00:07:22;;;;;;;;;;;13.20;99.90;;;;;;5004090;28;19917;-89
2022/10/24 00:12:54;;;;;;;;;;;13.30;99.90;;;;;;5003578;28;19980;-89
2022/10/24 00:15:25;;;;;;;;;;;13.30;99.90;;;;;;5015841;28;19905;-87
2022/10/24 00:17:57;;;;;;;;;;;13.30;99.90;;;;;;5027690;28;19914;-90
2022/10/24 00:20:37;;;;;;;;;;;13.20;99.90;;;;;;5026967;28;19921;-89
2022/10/24 00:23:12;;;;;;;;;;;13.30;99.90;;;;;;5019417;28;19902;-83
2022/10/24 00:25:41;;;;;;;;;;;13.30;99.90;;;;;;5025335;28;19973;-85
2022/10/24 00:28:18;;;;;;;;;;;13.30;99.90;;;;;;5024808;28;19925;-87
2022/10/24 00:30:47;;;;;;;;;;;13.20;99.90;;;;;;5020856;28;19902;-85
2022/10/24 00:33:16;;;;;;;;;;;13.20;99.90;;;;;;5021100;28;20012;-87
2022/10/24 00:35:51;;;;;;;;;;;13.20;99.90;;;;;;5038312;28;19936;-87
2022/10/24 00:38:30;;;;;;;;;;;13.20;99.90;;;;;;5041209;28;19906;-86
2022/10/24 00:41:26;;;;;;;;;;;13.20;99.90;;;;;;5025093;28;19901;-85
2022/10/24 00:44:16;;;;;;;;;;;13.20;99.90;;;;;;5041368;28;19912;-88
2022/10/24 00:46:58;;;;;;;;;;;13.30;99.90;;;;;;5023324;28;19925;-86
2022/10/24 00:49:50;;;;;;;;;;;13.30;99.90;;;;;;5029109;28;19914;-89
2022/10/24 00:52:23;;;;;;;;;;;13.30;99.90;;;;;;5013302;28;19913;-87
2022/10/24 00:55:13;;;;;;;;;;;13.30;99.90;;;;;;5010201;28;19925;-88
2022/10/24 00:57:45;;;;;;;;;;;13.30;99.90;;;;;;5024156;28;19909;-85
2022/10/24 01:00:22;;;;;;;;;;;13.30;99.90;;;;;;5040955;28;19976;-84
2022/10/24 01:02:59;;;;;;;;;;;13.30;99.90;;;;;;5024408;28;19905;-85
2022/10/24 01:05:34;;;;;;;;;;;13.30;99.90;;;;;;5008401;28;19912;-84
2022/10/24 01:08:25;;;;;;;;;;;13.30;99.90;;;;;;5041599;28;19897;-84
2022/10/24 01:11:00;;;;;;;;;;;13.30;99.90;;;;;;5040780;28;19901;-85
2022/10/24 01:13:43;;;;;;;;;;;13.30;99.90;;;;;;5041200;28;19905;-84
2022/10/24 01:16:36;;;;;;;;;;;13.30;99.90;;;;;;5040647;28;19920;-84
2022/10/24 01:19:12;;;;;;;;;;;13.30;99.90;;;;;;5006020;28;19905;-83
2022/10/24 01:22:10;;;;;;;;;;;13.20;99.90;;;;;;5024359;28;19905;-84
2022/10/24 01:24:51;;;;;;;;;;;13.20;99.90;;;;;;5022370;28;19956;-85
2022/10/24 01:27:39;;;;;;;;;;;13.20;99.90;;;;;;5024108;28;19901;-84
2022/10/24 01:30:20;;;;;;;;;;;13.20;99.90;;;;;;5007348;28;19906;-85
2022/10/24 01:33:19;;;;;;;;;;;13.10;99.90;;;;;;5041015;28;19905;-84
2022/10/24 01:35:53;;;;;;;;;;;13.20;99.90;;;;;;5031456;28;19933;-85
2022/10/24 01:38:32;;;;;;;;;;;13.20;99.90;;;;;;5038243;28;19918;-85
2022/10/24 01:41:06;;;;;;;;;;;13.20;99.90;;;;;;5039906;28;19906;-85
2022/10/24 01:44:07;;;;;;;;;;;;;;;;;;;;;
2022/10/24 01:46:41;;;;;;;;;;;13.30;99.90;;;;;;5039518;28;19913;-89
2022/10/24 01:49:19;;;;;;;;;;;13.30;99.90;;;;;;5009574;28;19918;-85
2022/10/24 01:51:56;;;;;;;;;;;13.40;99.90;;;;;;5007073;28;19913;-88
2022/10/24 01:54:22;;;;;;;;;;;13.50;99.90;;;;;;5031260;28;19917;-86
2022/10/24 01:56:48;;;;;;;;;;;13.50;99.90;;;;;;5020760;28;19977;-87
2022/10/24 01:59:29;;;;;;;;;;;13.50;99.90;;;;;;4991316;28;20413;-88
2022/10/24 02:01:59;;;;;;;;;;;13.50;99.90;;;;;;5033625;22;19936;-77
2022/10/24 02:04:26;;;;;;;;;;;13.50;99.90;;;;;;5041745;28;19963;-78
2022/10/24 02:06:52;;;;;;;;;;;13.50;99.90;;;;;;5043549;28;19913;-77
2022/10/24 02:09:19;;;;;;;;;;;13.60;99.90;;;;;;5043337;28;20373;-78
2022/10/24 02:11:46;;;;;;;;;;;13.70;99.90;;;;;;5019542;28;19909;-78
2022/10/24 02:14:14;;;;;;;;;;;13.70;99.90;;;;;;5067187;28;19966;-79
2022/10/24 02:16:40;;;;;;;;;;;13.70;99.90;;;;;;5060510;28;19921;-79
2022/10/24 02:19:06;;;;;;;;;;;13.70;99.90;;;;;;5062654;28;20013;-78
2022/10/24 02:22:04;;;;;;;;;;;13.70;99.90;;;;;;5042884;28;19959;-79
2022/10/24 02:24:29;;;;;;;;;;;13.70;99.90;;;;;;5010789;28;19913;-78
2022/10/24 02:27:04;;;;;;;;;;;13.70;99.90;;;;;;5060347;28;19909;-79
2022/10/24 02:29:32;;;;;;;;;;;13.80;99.90;;;;;;5063955;28;19948;-78
2022/10/24 02:31:58;;;;;;;;;;;13.80;99.90;;;;;;5043041;28;20338;-77
2022/10/24 02:34:26;;;;;;;;;;;13.80;99.90;;;;;;5063713;28;19974;-79
2022/10/24 02:36:52;;;;;;;;;;;13.90;99.90;;;;;;5061635;28;19916;-80
2022/10/24 02:39:19;;;;;;;;;;;13.90;99.90;;;;;;5062210;28;19919;-79
2022/10/24 02:41:44;;;;;;;;;;;13.90;99.90;;;;;;5066135;28;19909;-78
2022/10/24 02:44:11;;;;;;;;;;;13.90;99.90;;;;;;5045451;28;19935;-78
2022/10/24 02:46:37;;;;;;;;;;;13.80;99.90;;;;;;5031071;28;19909;-78
2022/10/24 02:49:03;;;;;;;;;;;13.80;99.90;;;;;;5048371;28;19917;-78
2022/10/24 02:51:34;;;;;;;;;;;13.80;99.90;;;;;;5040769;28;19908;-78
2022/10/24 02:54:02;;;;;;;;;;;13.80;99.90;;;;;;5040043;28;19916;-79
2022/10/24 02:56:28;;;;;;;;;;;13.80;99.90;;;;;;5057977;28;19913;-79
2022/10/24 02:58:54;;;;;;;;;;;13.90;99.90;;;;;;5057195;28;20427;-78
2022/10/24 03:01:19;;;;;;;;;;;13.90;99.90;;;;;;5065913;28;19897;-77
2022/10/24 03:03:45;;;;;;;;;;;13.80;99.90;;;;;;5059820;28;20050;-77
2022/10/24 03:06:11;;;;;;;;;;;13.80;99.90;;;;;;5060240;28;19975;-78
2022/10/24 03:08:37;;;;;;;;;;;13.80;99.90;;;;;;5054989;28;19920;-78
2022/10/24 03:11:02;;;;;;;;;;;13.80;99.90;;;;;;5049589;28;20035;-79
2022/10/24 03:13:28;;;;;;;;;;;13.80;99.90;;;;;;5071263;28;19912;-77
2022/10/24 03:15:54;;;;;;;;;;;13.80;99.90;;;;;;5056978;28;19963;-78
2022/10/24 03:18:19;;;;;;;;;;;13.70;99.90;;;;;;5047132;28;19913;-79
2022/10/24 03:20:45;;;;;;;;;;;13.70;99.90;;;;;;5048503;28;20285;-78
2022/10/24 03:23:11;;;;;;;;;;;13.70;99.90;;;;;;5063999;28;19913;-79
2022/10/24 03:25:37;;;;;;;;;;;13.60;99.90;;;;;;5066865;28;19935;-77
2022/10/24 03:28:02;;;;;;;;;;;13.50;99.90;;;;;;5066923;28;19921;-78
2022/10/24 03:30:28;;;;;;;;;;;13.50;99.90;;;;;;5023942;28;19963;-79
2022/10/24 03:32:54;;;;;;;;;;;13.50;99.90;;;;;;5040486;28;19972;-78
2022/10/24 03:35:19;;;;;;;;;;;13.30;99.90;;;;;;5059913;28;19917;-78
2022/10/24 03:37:45;;;;;;;;;;;13.30;99.90;;;;;;5044028;28;19928;-78
2022/10/24 03:40:11;;;;;;;;;;;13.20;99.90;;;;;;5062162;28;19999;-78
2022/10/24 03:42:37;;;;;;;;;;;13.20;99.90;;;;;;5065040;28;19917;-78
2022/10/24 03:45:03;;;;;;;;;;;13.10;99.90;;;;;;5063002;28;19943;-78
2022/10/24 03:47:28;;;;;;;;;;;13.10;99.90;;;;;;5070175;28;19912;-80
2022/10/24 03:49:54;;;;;;;;;;;13.10;99.90;;;;;;5066484;28;19908;-78
2022/10/24 03:52:20;;;;;;;;;;;13.10;99.90;;;;;;5049014;28;19946;-77
2022/10/24 03:54:45;;;;;;;;;;;13.00;99.90;;;;;;5071640;28;19955;-78
2022/10/24 03:57:11;;;;;;;;;;;13.00;99.90;;;;;;5066268;28;19955;-78
2022/10/24 03:59:37;;;;;;;;;;;13.00;99.90;;;;;;5039602;28;19939;-80
2022/10/24 04:02:02;;;;;;;;;;;13.10;99.90;;;;;;5057635;28;20399;-78
2022/10/24 04:04:28;;;;;;;;;;;13.00;99.90;;;;;;5058820;28;19909;-79
2022/10/24 04:06:54;;;;;;;;;;;13.10;99.90;;;;;;5058210;28;19917;-80
2022/10/24 04:09:20;;;;;;;;;;;13.00;99.90;;;;;;5057696;28;19916;-79
2022/10/24 04:11:46;;;;;;;;;;;13.00;99.90;;;;;;5039968;28;19912;-79
2022/10/24 04:14:11;;;;;;;;;;;12.90;99.90;;;;;;5025553;28;19913;-78
2022/10/24 04:16:37;;;;;;;;;;;12.90;99.90;;;;;;5058111;28;20401;-79
2022/10/24 04:19:03;;;;;;;;;;;12.90;99.90;;;;;;5039252;28;19952;-79
2022/10/24 04:21:29;;;;;;;;;;;12.80;99.90;;;;;;5060709;28;19913;-79
2022/10/24 04:23:55;;;;;;;;;;;12.80;99.90;;;;;;5059919;28;19913;-79
2022/10/24 04:26:21;;;;;;;;;;;12.70;99.90;;;;;;5059881;28;19917;-80
2022/10/24 04:28:47;;;;;;;;;;;12.70;99.90;;;;;;5046250;28;19909;-78
2022/10/24 04:31:12;;;;;;;;;;;12.60;99.90;;;;;;5047097;28;19959;-79
2022/10/24 04:33:38;;;;;;;;;;;12.50;99.90;;;;;;5060240;28;19909;-79
2022/10/24 04:36:04;;;;;;;;;;;12.50;99.90;;;;;;5059321;28;19975;-78
2022/10/24 04:38:30;;;;;;;;;;;12.50;99.90;;;;;;5059282;28;19915;-79
2022/10/24 04:40:56;;;;;;;;;;;12.40;99.90;;;;;;5059370;28;19913;-81
2022/10/24 04:43:23;;;;;;;;;;;12.30;99.90;;;;;;5058815;28;19948;-78
2022/10/24 04:45:49;;;;;;;;;;;12.30;99.90;;;;;;5058332;28;19920;-79
2022/10/24 04:48:15;;;;;;;;;;;12.30;99.90;;;;;;5061637;28;19908;-78
2022/10/24 04:50:41;;;;;;;;;;;12.20;99.90;;;;;;5069207;28;19912;-79
2022/10/24 04:53:11;;;;;;;;;;;12.20;99.90;;;;;;5047587;28;19941;-80
2022/10/24 04:55:37;;;;;;;;;;;12.20;99.90;;;;;;5060361;28;19927;-80
2022/10/24 04:58:03;;;;;;;;;;;12.20;99.90;;;;;;5059042;28;19913;-79
2022/10/24 05:00:28;;;;;;;;;;;12.10;99.90;;;;;;5031961;28;19913;-78
2022/10/24 05:02:54;;;;;;;;;;;12.10;99.90;;;;;;5062859;28;19956;-79
2022/10/24 05:05:20;;;;;;;;;;;12.10;99.90;;;;;;5052053;28;20270;-77
2022/10/24 05:07:45;;;;;;;;;;;12.10;99.90;;;;;;5072171;28;19963;-80
2022/10/24 05:10:12;;;;;;;;;;;12.10;99.90;;;;;;5064666;28;20007;-79
2022/10/24 05:12:38;;;;;;;;;;;12.10;99.90;;;;;;5064845;28;19943;-82
2022/10/24 05:15:04;;;;;;;;;;;12.00;99.90;;;;;;5050342;28;19975;-80
2022/10/24 05:17:30;;;;;;;;;;;12.00;99.90;;;;;;5067342;28;20003;-79
2022/10/24 05:19:56;;;;;;;;;;;12.00;99.90;;;;;;5064008;28;20332;-79
2022/10/24 05:22:22;;;;;;;;;;;12.00;99.90;;;;;;5063399;28;19935;-79
2022/10/24 05:24:49;;;;;;;;;;;12.10;99.90;;;;;;5047591;28;19913;-79
2022/10/24 05:27:14;;;;;;;;;;;12.10;99.90;;;;;;5028728;28;20296;-80
2022/10/24 05:29:40;;;;;;;;;;;12.10;99.90;;;;;;5049755;28;19924;-78
2022/10/24 05:32:06;;;;;;;;;;;12.10;99.90;;;;;;5055888;28;19912;-78
2022/10/24 05:34:31;;;;;;;;;;;12.10;99.90;;;;;;5067203;28;19948;-81
2022/10/24 05:36:57;;;;;;;;;;;12.10;99.90;;;;;;5068391;28;19971;-79
2022/10/24 05:39:23;;;;;;;;;;;12.10;99.90;;;;;;5052484;28;19913;-79
2022/10/24 05:41:48;;;;;;;;;;;12.10;99.90;;;;;;5043850;28;19920;-80
2022/10/24 05:44:14;;;;;;;;;;;12.10;99.90;;;;;;5044584;28;20012;-79
2022/10/24 05:46:40;;;;;;;;;;;12.10;99.90;;;;;;5043769;28;19979;-79
2022/10/24 05:49:06;;;;;;;;;;;12.10;99.90;;;;;;5064537;28;20434;-80
2022/10/24 05:51:32;;;;;;;;;;;12.10;99.90;;;;;;5070741;28;19908;-79
2022/10/24 05:53:58;;;;;;;;;;;12.10;99.90;;;;;;5066978;28;20020;-80
2022/10/24 05:56:24;;;;;;;;;;;12.10;99.90;;;;;;5045967;28;20449;-79
2022/10/24 05:58:50;;;;;;;;;;;12.10;99.90;;;;;;5070996;28;19913;-82
2022/10/24 06:01:16;;;;;;;;;;;12.10;99.90;;;;;;5046247;28;19909;-80
2022/10/24 06:03:42;;;;;;;;;;;12.20;99.90;;;;;;5045454;28;19988;-80
2022/10/24 06:06:08;;;;;;;;;;;12.20;99.90;;;;;;5071858;28;19916;-79
2022/10/24 06:08:35;;;;;;;;;;;12.20;99.90;;;;;;5072471;28;19912;-79
2022/10/24 06:11:01;;;;;;;;;;;12.20;99.90;;;;;;5073887;28;19916;-79
2022/10/24 06:13:26;;;;;;;;;;;12.20;99.90;;;;;;5071758;28;19936;-79
2022/10/24 06:15:52;;;;;;;;;;;12.30;99.90;;;;;;5072092;28;19900;-81
2022/10/24 06:18:18;;;;;;;;;;;12.30;99.90;;;;;;5053783;28;20341;-79
2022/10/24 06:20:43;;;;;;;;;;;12.30;99.90;;;;;;5073638;28;19909;-78
2022/10/24 06:23:09;;;;;;;;;;;12.40;99.90;;;;;;5073020;28;20357;-79
2022/10/24 06:25:34;;;;;;;;;;;12.40;99.90;;;;;;5065516;28;20014;-79
2022/10/24 06:28:00;;;;;;;;;;;12.40;99.90;;;;;;5066501;28;19924;-79
2022/10/24 06:30:26;;;;;;;;;;;12.50;99.90;;;;;;5067560;28;19909;-80
2022/10/24 06:32:51;;;;;;;;;;;12.50;99.90;;;;;;5066845;28;19963;-81
2022/10/24 06:35:18;;;;;;;;;;;12.50;99.90;;;;;;5064342;28;19920;-80
2022/10/24 06:37:43;;;;;;;;;;;12.60;99.90;;;;;;5046716;28;20288;-79
2022/10/24 06:40:09;;;;;;;;;;;12.60;99.90;;;;;;5063507;28;19992;-78
2022/10/24 06:42:35;;;;;;;;;;;12.70;99.90;;;;;;5062744;28;19913;-80
2022/10/24 06:45:01;;;;;;;;;;;12.80;99.90;;;;;;5066460;28;19982;-79
2022/10/24 06:47:27;;;;;;;;;;;12.90;99.90;;;;;;5067842;28;19980;-80
2022/10/24 06:49:52;;;;;;;;;;;13.10;99.90;;;;;;5050339;28;20067;-78
2022/10/24 06:52:18;;;;;;;;;;;13.20;99.90;;;;;;5069030;28;19913;-81
2022/10/24 06:54:44;;;;;;;;;;;13.40;99.90;;;;;;5049514;28;19945;-78
2022/10/24 06:57:09;;;;;;;;;;;13.40;99.90;;;;;;5065323;28;19912;-78
2022/10/24 06:59:35;;;;;;;;;;;13.60;99.90;;;;;;5063621;28;19948;-79
2022/10/24 07:02:01;;;;;;;;;;;13.70;99.90;;;;;;5060787;28;20024;-81
2022/10/24 07:04:26;;;;;;;;;;;14.00;99.90;;;;;;5066417;28;19919;-79
2022/10/24 07:06:52;;;;;;;;;;;14.20;99.90;;;;;;5075665;28;19924;-78
2022/10/24 07:09:18;;;;;;;;;;;14.40;99.90;;;;;;5076095;28;19988;-80
2022/10/24 07:11:44;;;;;;;;;;;14.60;99.90;;;;;;5062905;28;19912;-81
2022/10/24 07:14:10;;;;;;;;;;;14.70;99.90;;;;;;5059555;28;20376;-78
2022/10/24 07:16:36;;;;;;;;;;;14.80;99.90;;;;;;5058989;28;20339;-80
2022/10/24 07:19:02;;;;;;;;;;;14.80;99.90;;;;;;5040616;28;19913;-79
2022/10/24 07:21:29;;;;;;;;;;;14.90;99.90;;;;;;5041799;28;19936;-80
2022/10/24 07:23:55;;;;;;;;;;;14.80;99.90;;;;;;5059622;28;20008;-78
2022/10/24 07:26:21;;;;;;;;;;;14.50;99.90;;;;;;5062834;28;19928;-80
2022/10/24 07:28:52;;;;;;;;;;;14.50;99.90;;;;;;5070920;28;19908;-79
2022/10/24 07:31:18;;;;;;;;;;;14.40;99.90;;;;;;5064978;28;19920;-80
2022/10/24 07:33:44;;;;;;;;;;;14.40;99.90;;;;;;5061626;28;20311;-80
2022/10/24 07:36:13;;;;;;;;;;;14.30;99.90;;;;;;5060191;28;20012;-79
2022/10/24 07:38:39;;;;;;;;;;;14.20;99.90;;;;;;5062316;28;20444;-80
2022/10/24 07:41:05;;;;;;;;;;;14.20;99.90;;;;;;5061855;28;19920;-80
2022/10/24 07:43:31;;;;;;;;;;;14.30;99.90;;;;;;5042571;28;19916;-79
2022/10/24 07:45:56;;;;;;;;;;;14.40;99.90;;;;;;5062993;28;19913;-81
2022/10/24 07:48:22;;;;;;;;;;;14.40;99.90;;;;;;5065776;28;20372;-80
2022/10/24 07:50:48;;;;;;;;;;;14.50;99.90;;;;;;5067409;28;19966;-79
2022/10/24 07:53:13;;;;;;;;;;;14.60;99.90;;;;;;5048767;28;19935;-80
2022/10/24 07:55:39;;;;;;;;;;;14.70;99.90;;;;;;5061709;28;19928;-80
2022/10/24 07:58:05;;;;;;;;;;;14.70;99.90;;;;;;5060625;28;19909;-78
2022/10/24 08:00:31;;;;;;;;;;;14.80;99.90;;;;;;5058995;28;19913;-78
2022/10/24 08:02:57;;;;;;;;;;;14.80;99.90;;;;;;5108381;23;19936;-85
2022/10/24 08:05:24;;;;;;;;;;;14.70;99.90;;;;;;5024900;28;19901;-86
2022/10/24 08:07:52;;;;;;;;;;;14.80;99.90;;;;;;5024915;28;19950;-86
2022/10/24 08:10:19;;;;;;;;;;;14.80;99.90;;;;;;5040576;28;19928;-85
2022/10/24 08:12:44;;;;;;;;;;;14.80;99.90;;;;;;5031795;28;19901;-86
2022/10/24 08:15:11;;;;;;;;;;;14.90;99.90;;;;;;5060771;28;19947;-85
2022/10/24 08:17:44;;;;;;;;;;;14.90;99.90;;;;;;5044341;28;19912;-85
2022/10/24 08:20:10;;;;;;;;;;;14.90;99.90;;;;;;5060392;28;19900;-87
2022/10/24 08:22:41;;;;;;;;;;;14.80;99.90;;;;;;5044228;28;19904;-86
2022/10/24 08:25:13;;;;;;;;;;;14.90;99.90;;;;;;5044946;28;19901;-85
2022/10/24 08:27:51;;;;;;;;;;;14.90;99.90;;;;;;5061130;28;19915;-85
2022/10/24 08:30:33;;;;;;;;;;;15.00;99.90;;;;;;5045263;28;19905;-86
2022/10/24 08:32:59;;;;;;;;;;;15.20;99.90;;;;;;5060214;28;19959;-85
2022/10/24 08:35:27;;;;;;;;;;;15.30;99.90;;;;;;5055413;28;19932;-87
2022/10/24 08:37:56;;;;;;;;;;;15.40;99.90;;;;;;5052005;28;19920;-89
2022/10/24 08:43:25;;;;;;;;;;;15.60;99.90;;;;;;5079532;28;19928;-87
2022/10/24 08:46:15;;;;;;;;;;;15.60;99.90;;;;;;5048860;28;20040;-86
2022/10/24 08:48:48;;;;;;;;;;;15.60;99.90;;;;;;5047706;28;19935;-87
2022/10/24 08:51:24;;;;;;;;;;;16.10;99.90;;;;;;5047883;28;19913;-87
2022/10/24 08:53:55;;;;;;;;;;;17.00;99.90;;;;;;5047373;28;19940;-86
2022/10/24 08:56:36;;;;;;;;;;;17.20;99.90;;;;;;5048758;28;20539;-85
2022/10/24 08:59:12;;;;;;;;;;;16.90;99.90;;;;;;5047616;28;19967;-85
2022/10/24 09:02:15;;;;;;;;;;;;;;;;;;;;;
2022/10/24 09:05:01;;;;;;;;;;;16.10;99.90;;;;;;5063492;28;19909;-85
2022/10/24 09:07:46;;;;;;;;;;;16.00;99.90;;;;;;5048669;28;19936;-84
2022/10/24 09:10:18;;;;;;;;;;;15.80;99.90;;;;;;5046811;28;19905;-87
2022/10/24 09:12:44;;;;;;;;;;;15.90;99.90;;;;;;5047350;28;19913;-86
2022/10/24 09:15:21;;;;;;;;;;;15.90;99.90;;;;;;5063963;28;19920;-86
2022/10/24 09:17:55;;;;;;;;;;;15.80;99.90;;;;;;5047172;28;19912;-86
2022/10/24 09:20:55;;;;;;;;;;;15.90;99.90;;;;;;5066780;28;20000;-87
2022/10/24 09:23:32;;;;;;;;;;;16.00;99.90;;;;;;5062897;28;19924;-87
2022/10/24 09:26:02;;;;;;;;;;;16.00;99.90;;;;;;5063751;28;19905;-85
2022/10/24 09:28:33;;;;;;;;;;;15.80;99.90;;;;;;5063363;28;19900;-85
2022/10/24 09:31:05;;;;;;;;;;;15.70;99.90;;;;;;5080965;28;19905;-87
2022/10/24 09:33:34;;;;;;;;;;;15.70;99.90;;;;;;5045094;28;19912;-88
2022/10/24 09:36:11;;;;;;;;;;;15.70;99.90;;;;;;5057170;28;19905;-87
2022/10/24 09:38:48;;;;;;;;;;;15.70;99.90;;;;;;5062001;28;19927;-86
2022/10/24 09:41:22;;;;;;;;;;;15.80;99.90;;;;;;5045789;28;19943;-87
2022/10/24 09:43:53;;;;;;;;;;;15.80;99.90;;;;;;5039843;28;19920;-88
2022/10/24 09:46:28;;;;;;;;;;;15.80;99.90;;;;;;5052742;28;19912;-87
2022/10/24 09:48:56;;;;;;;;;;;15.80;99.90;;;;;;5058580;28;19986;-87
2022/10/24 09:51:40;;;;;;;;;;;16.00;99.90;;;;;;5061341;28;19913;-88
2022/10/24 09:54:09;;;;;;;;;;;16.10;99.90;;;;;;5054007;28;19924;-87
2022/10/24 09:57:17;;;;;;;;;;;16.30;99.90;;;;;;5070807;28;19932;-88
2022/10/24 10:00:02;;;;;;;;;;;;;;;;;;;;;
2022/10/24 10:02:52;;;;;;;;;;;16.60;99.90;;;;;;5046357;28;19937;-87
2022/10/24 10:06:15;;;;;;;;;;;16.60;99.90;;;;;;5046236;28;20007;-88
2022/10/24 10:09:03;;;;;;;;;;;16.60;99.90;;;;;;5031724;28;19917;-89
2022/10/24 10:11:54;;;;;;;;;;;16.50;99.90;;;;;;5047684;28;19920;-88
2022/10/24 10:14:25;;;;;;;;;;;16.70;99.90;;;;;;5071323;23;19932;-87
2022/10/24 10:17:21;;;;;;;;;;;16.70;99.90;;;;;;5014047;28;19917;-87
2022/10/24 10:20:34;;;;;;;;;;;16.80;99.90;;;;;;5013351;28;19985;-87
2022/10/24 10:23:37;;;;;;;;;;;16.90;99.90;;;;;;5041155;28;19913;-87
2022/10/24 10:29:16;;;;;;;;;;;16.90;99.90;;;;;;5002019;28;19961;-82
2022/10/24 10:31:46;;;;;;;;;;;17.00;99.90;;;;;;5005126;28;19976;-80
2022/10/24 10:34:18;;;;;;;;;;;17.00;99.90;;;;;;5003491;28;19914;-79
2022/10/24 10:37:07;;;;;;;;;;;17.10;99.90;;;;;;5009411;28;19918;-81
2022/10/24 10:39:51;;;;;;;;;;;17.20;99.90;;;;;;4978247;28;19920;-80
2022/10/24 10:42:17;;;;;;;;;;;17.40;99.90;;;;;;4985997;28;19918;-80
2022/10/24 10:44:42;;;;;;;;;;;17.90;99.90;;;;;;4984473;28;19925;-81
2022/10/24 10:47:18;;;;;;;;;;;18.30;99.90;;;;;;4975029;28;19936;-78
2022/10/24 10:49:45;;;;;;;;;;;18.90;99.90;;;;;;4986956;28;19914;-82
2022/10/24 10:52:10;;;;;;;;;;;19.30;99.90;;;;;;4985952;28;19910;-78
2022/10/24 10:54:55;;;;;;;;;;;19.40;99.90;;;;;;5006892;28;19913;-81
2022/10/24 10:57:23;;;;;;;;;;;19.70;99.90;;;;;;5004520;28;19917;-80
2022/10/24 10:59:52;;;;;;;;;;;19.60;99.90;;;;;;4985864;28;19910;-81
2022/10/24 11:02:18;;;;;;;;;;;19.60;99.90;;;;;;5004965;28;19960;-81
2022/10/24 11:04:46;;;;;;;;;;;19.30;99.90;;;;;;5007520;28;19964;-81
2022/10/24 11:07:31;;;;;;;;;;;19.00;99.90;;;;;;5014053;28;19914;-80
2022/10/24 11:09:58;;;;;;;;;;;19.00;99.90;;;;;;5016894;28;19916;-79
2022/10/24 11:12:35;;;;;;;;;;;19.10;99.90;;;;;;5016853;28;19914;-78
2022/10/24 11:15:03;;;;;;;;;;;19.10;99.90;;;;;;4996221;28;19925;-81
2022/10/24 11:17:34;;;;;;;;;;;19.00;99.90;;;;;;5011850;28;19917;-80
2022/10/24 11:20:09;;;;;;;;;;;18.90;99.90;;;;;;5006679;28;19914;-81
2022/10/24 11:22:40;;;;;;;;;;;18.80;99.90;;;;;;5002275;28;19913;-80
2022/10/24 11:25:16;;;;;;;;;;;19.00;99.90;;;;;;5001670;28;19917;-83
2022/10/24 11:27:46;;;;;;;;;;;19.30;99.90;;;;;;5002079;28;19933;-78
2022/10/24 11:30:14;;;;;;;;;;;19.80;99.90;;;;;;5000427;28;19914;-80
2022/10/24 11:32:44;;;;;;;;;;;20.10;99.90;;;;;;5000593;28;20363;-80
2022/10/24 11:35:28;;;;;;;;;;;20.40;99.90;;;;;;4999825;28;19949;-81
2022/10/24 11:38:17;;;;;;;;;;;20.70;99.90;;;;;;5001151;28;20115;-79
2022/10/24 11:40:45;;;;;;;;;;;21.00;99.90;;;;;;5003342;28;19918;-79
2022/10/24 11:43:20;;;;;;;;;;;21.70;99.90;;;;;;5011918;28;19973;-80
2022/10/24 11:45:45;;;;;;;;;;;22.00;99.90;;;;;;5009473;28;19914;-79
2022/10/24 11:48:15;;;;;;;;;;;22.50;99.90;;;;;;5006779;28;19917;-80
2022/10/24 11:50:47;;;;;;;;;;;22.70;99.90;;;;;;5003212;28;19914;-80
2022/10/24 11:53:16;;;;;;;;;;;22.90;99.90;;;;;;5000357;28;19918;-79
2022/10/24 11:55:45;;;;;;;;;;;23.00;99.90;;;;;;5000488;28;20029;-79
2022/10/24 11:58:17;;;;;;;;;;;23.20;99.90;;;;;;5022792;28;19914;-80
2022/10/24 12:01:01;;;;;;;;;;;23.20;99.90;;;;;;5005772;28;20373;-79
2022/10/24 12:03:29;;;;;;;;;;;23.30;99.90;;;;;;5000260;28;19914;-81
2022/10/24 12:05:58;;;;;;;;;;;23.60;99.90;;;;;;5000751;28;19917;-81
2022/10/24 12:08:40;;;;;;;;;;;23.50;99.90;;;;;;4998149;28;19914;-81
2022/10/24 12:11:25;;;;;;;;;;;23.40;99.90;;;;;;5000883;28;19918;-79
2022/10/24 12:14:11;;;;;;;;;;;23.20;99.90;;;;;;5000967;28;19914;-80
2022/10/24 12:16:46;;;;;;;;;;;22.90;99.90;;;;;;5000378;28;19918;-80
2022/10/24 12:19:16;;;;;;;;;;;22.70;99.90;;;;;;5001385;28;19968;-81
2022/10/24 12:21:47;;;;;;;;;;;22.60;99.90;;;;;;5005422;28;19952;-80
2022/10/24 12:24:39;;;;;;;;;;;22.40;99.90;;;;;;5006258;28;19991;-77
2022/10/24 12:27:27;;;;;;;;;;;22.10;99.90;;;;;;5003233;28;19928;-80
2022/10/24 12:30:20;;;;;;;;;;;21.90;99.90;;;;;;5007526;28;20005;-81
2022/10/24 12:33:07;;;;;;;;;;;21.70;99.90;;;;;;5003879;28;19921;-80
2022/10/24 12:35:47;;;;;;;;;;;21.70;99.90;;;;;;5015005;28;19922;-81
2022/10/24 12:38:15;;;;;;;;;;;21.60;99.90;;;;;;5003295;28;19921;-79
2022/10/24 12:40:43;;;;;;;;;;;21.70;99.90;;;;;;5003714;28;19964;-82
2022/10/24 12:43:28;;;;;;;;;;;21.70;99.90;;;;;;5004328;28;19918;-82
2022/10/24 12:45:54;;;;;;;;;;;21.80;99.90;;;;;;5000966;28;19985;-82
2022/10/24 12:48:29;;;;;;;;;;;21.70;99.90;;;;;;4999822;28;19956;-79
2022/10/24 12:50:57;;;;;;;;;;;21.50;99.90;;;;;;4999611;28;19968;-81
2022/10/24 12:53:52;;;;;;;;;;;21.20;99.90;;;;;;5000454;28;19910;-83
2022/10/24 12:56:19;;;;;;;;;;;21.10;99.90;;;;;;4978282;28;19928;-82
2022/10/24 12:58:54;;;;;;;;;;;21.00;99.90;;;;;;5005797;28;19910;-78
2022/10/24 13:01:26;;;;;;;;;;;21.10;99.90;;;;;;4999810;28;19914;-78
2022/10/24 13:03:54;;;;;;;;;;;21.20;99.90;;;;;;5004050;28;19914;-80
2022/10/24 13:06:39;;;;;;;;;;;21.30;99.90;;;;;;5016220;28;19968;-79
2022/10/24 13:09:23;;;;;;;;;;;21.20;99.90;;;;;;5016634;28;19905;-79
2022/10/24 13:11:58;;;;;;;;;;;21.10;99.90;;;;;;5009228;28;19925;-81
2022/10/24 13:14:46;;;;;;;;;;;21.00;99.90;;;;;;5005369;28;19914;-81
2022/10/24 13:17:15;;;;;;;;;;;20.90;99.90;;;;;;4992249;28;19917;-82
2022/10/24 13:19:41;;;;;;;;;;;20.90;99.90;;;;;;5006785;28;19921;-79
2022/10/24 13:22:29;;;;;;;;;;;20.90;99.90;;;;;;5007001;28;20309;-81
2022/10/24 13:24:55;;;;;;;;;;;20.70;99.90;;;;;;5008366;28;19914;-79
2022/10/24 13:27:23;;;;;;;;;;;20.60;99.90;;;;;;5008321;28;19914;-81
2022/10/24 13:29:48;;;;;;;;;;;20.60;99.90;;;;;;5006028;28;19914;-81
2022/10/24 13:32:14;;;;;;;;;;;20.50;99.90;;;;;;5005355;28;19984;-79
2022/10/24 13:34:49;;;;;;;;;;;20.30;99.90;;;;;;5006974;28;19977;-80
2022/10/24 13:37:22;;;;;;;;;;;20.20;99.90;;;;;;5006470;28;19984;-80
2022/10/24 13:39:52;;;;;;;;;;;20.20;99.90;;;;;;5010502;28;19917;-80
2022/10/24 13:42:27;;;;;;;;;;;20.20;99.90;;;;;;5006358;28;19921;-79
2022/10/24 13:45:15;;;;;;;;;;;20.20;99.90;;;;;;5018267;28;19914;-80
2022/10/24 13:47:42;;;;;;;;;;;20.10;99.90;;;;;;5012282;28;19985;-79
2022/10/24 13:50:20;;;;;;;;;;;20.00;99.90;;;;;;5005969;28;20000;-80
2022/10/24 13:52:49;;;;;;;;;;;20.00;99.90;;;;;;5002248;28;19914;-80
2022/10/24 13:55:20;;;;;;;;;;;20.00;99.90;;;;;;5003107;28;20004;-81
2022/10/24 13:57:52;;;;;;;;;;;19.90;99.90;;;;;;5019409;28;20305;-78
2022/10/24 14:00:29;;;;;;;;;;;19.90;99.90;;;;;;5017637;28;20084;-81
2022/10/24 14:02:56;;;;;;;;;;;19.80;99.90;;;;;;5002263;28;19913;-80
2022/10/24 14:05:33;;;;;;;;;;;19.70;99.90;;;;;;5002846;28;19910;-81
2022/10/24 14:08:00;;;;;;;;;;;19.60;99.90;;;;;;4985594;28;19977;-81
2022/10/24 14:10:26;;;;;;;;;;;19.50;99.90;;;;;;5003702;28;19929;-80
2022/10/24 14:12:55;;;;;;;;;;;19.40;99.90;;;;;;5028329;28;19902;-79
2022/10/24 14:15:26;;;;;;;;;;;19.30;99.90;;;;;;5013026;28;19918;-80
2022/10/24 14:17:56;;;;;;;;;;;19.30;99.90;;;;;;5012797;28;19964;-80
2022/10/24 14:20:22;;;;;;;;;;;19.10;99.90;;;;;;5013349;28;19981;-80
2022/10/24 14:22:48;;;;;;;;;;;18.90;99.90;;;;;;5013682;28;19914;-79
2022/10/24 14:25:21;;;;;;;;;;;18.70;99.90;;;;;;5011459;28;19914;-79
2022/10/24 14:27:46;;;;;;;;;;;18.60;99.90;;;;;;5012360;28;20001;-80
2022/10/24 14:30:16;;;;;;;;;;;18.50;99.90;;;;;;5010588;28;20329;-78
2022/10/24 14:32:42;;;;;;;;;;;18.40;99.90;;;;;;5010180;28;19920;-81
2022/10/24 14:35:11;;;;;;;;;;;18.30;99.90;;;;;;5003420;28;20401;-79
2022/10/24 14:37:37;;;;;;;;;;;18.20;99.90;;;;;;5012047;28;19914;-80
2022/10/24 14:40:03;;;;;;;;;;;18.20;99.90;;;;;;5006141;28;19961;-80
2022/10/24 14:42:29;;;;;;;;;;;18.20;99.90;;;;;;5002110;28;19921;-81
2022/10/24 14:44:55;;;;;;;;;;;18.10;99.90;;;;;;5001386;28;20255;-80
2022/10/24 14:47:23;;;;;;;;;;;18.10;99.90;;;;;;5016854;28;20004;-81
2022/10/24 14:49:49;;;;;;;;;;;18.00;99.90;;;;;;5000798;28;19968;-80
2022/10/24 14:52:35;;;;;;;;;;;18.00;99.90;;;;;;5001203;28;19958;-81
2022/10/24 14:55:01;;;;;;;;;;;18.00;99.90;;;;;;5002878;28;19914;-80
2022/10/24 14:57:28;;;;;;;;;;;18.10;99.90;;;;;;5009943;28;19909;-80
2022/10/24 14:59:54;;;;;;;;;;;18.10;99.90;;;;;;5007583;28;20308;-80